Time;durP1;ratioP1;P1;durP2;ratioP2;P2;SDS_P1;SDS_P2;PMS_P1;PMS_P2;Temp;Humidity;BMP_temperature;BMP_pressure;BME280_temperature;BME280_humidity;BME280_pressure;Samples;Min_cycle;Max_cycle;Signal;HPM_P1;HPM_P2
2021/06/19 00:02:05;;;;;;;23.30;20.90;;;22.50;60.40;;;;;;4959057;29;20707;-82
2021/06/19 00:04:31;;;;;;;23.25;20.85;;;22.50;60.50;;;;;;4959844;29;20197;-82
2021/06/19 00:06:59;;;;;;;22.05;19.85;;;22.50;60.50;;;;;;4942825;29;20158;-82
2021/06/19 00:09:24;;;;;;;23.83;21.33;;;22.50;60.50;;;;;;4958467;29;20268;-82
2021/06/19 00:11:51;;;;;;;23.25;20.90;;;22.50;60.40;;;;;;4958305;29;20185;-83
2021/06/19 00:14:18;;;;;;;22.40;20.20;;;22.50;60.50;;;;;;4942121;29;20665;-84
2021/06/19 00:16:43;;;;;;;23.13;20.83;;;22.50;60.50;;;;;;4958256;29;20572;-82
2021/06/19 00:19:11;;;;;;;23.77;21.40;;;22.50;60.50;;;;;;4926365;29;20186;-84
2021/06/19 00:21:37;;;;;;;23.60;21.15;;;22.50;60.50;;;;;;4926828;29;20695;-82
2021/06/19 00:24:03;;;;;;;23.38;21.02;;;22.50;60.60;;;;;;4957871;28;20201;-83
2021/06/19 00:26:31;;;;;;;23.48;21.08;;;22.50;60.50;;;;;;4957648;29;20225;-84
2021/06/19 00:29:00;;;;;;;23.48;20.98;;;22.40;60.50;;;;;;4925403;29;20189;-83
2021/06/19 00:31:28;;;;;;;23.00;20.63;;;22.40;60.50;;;;;;4893945;29;20310;-84
2021/06/19 00:33:56;;;;;;;23.02;20.70;;;22.40;60.60;;;;;;4925052;29;20221;-84
2021/06/19 00:36:26;;;;;;;23.77;21.27;;;22.40;60.60;;;;;;4894241;29;20252;-84
2021/06/19 00:38:54;;;;;;;22.65;20.35;;;22.40;60.60;;;;;;4893975;29;20185;-83
2021/06/19 00:41:24;;;;;;;24.35;21.92;;;22.40;60.50;;;;;;4941250;29;20193;-82
2021/06/19 00:43:52;;;;;;;23.35;20.95;;;22.40;60.70;;;;;;4893853;29;20217;-83
2021/06/19 00:46:21;;;;;;;22.88;20.52;;;22.40;60.70;;;;;;4925190;29;20192;-83
2021/06/19 00:48:49;;;;;;;24.30;21.80;;;22.40;60.70;;;;;;4909629;29;20189;-83
2021/06/19 00:51:15;;;;;;;23.83;21.33;;;22.40;60.70;;;;;;4893698;29;20189;-82
2021/06/19 00:53:44;;;;;;;23.35;20.95;;;22.40;60.80;;;;;;4957785;29;20169;-83
2021/06/19 00:56:12;;;;;;;23.90;21.45;;;22.30;60.80;;;;;;4925229;29;20637;-83
2021/06/19 00:58:40;;;;;;;23.60;21.20;;;22.30;60.70;;;;;;4909524;29;20188;-82
2021/06/19 01:01:10;;;;;;;23.30;21.00;;;22.40;60.80;;;;;;4925558;29;20193;-83
2021/06/19 01:03:37;;;;;;;23.45;21.05;;;22.40;60.70;;;;;;4909468;29;20221;-83
2021/06/19 01:06:07;;;;;;;24.27;21.67;;;22.40;60.80;;;;;;4909281;29;20244;-84
2021/06/19 01:08:35;;;;;;;24.63;22.05;;;22.40;60.80;;;;;;4909440;29;20748;-82
2021/06/19 01:11:05;;;;;;;23.63;21.13;;;22.40;60.80;;;;;;4940820;29;20185;-84
2021/06/19 01:13:32;;;;;;;23.20;20.80;;;22.40;60.80;;;;;;4909267;29;20251;-83
2021/06/19 01:16:02;;;;;;;22.50;20.20;;;22.30;60.70;;;;;;4908989;29;20197;-83
2021/06/19 01:18:29;;;;;;;23.40;21.10;;;22.40;60.70;;;;;;4909421;29;20197;-84
2021/06/19 01:20:56;;;;;;;24.85;22.17;;;22.40;60.80;;;;;;4924761;29;20220;-83
2021/06/19 01:23:23;;;;;;;23.15;20.80;;;22.40;60.90;;;;;;4893191;29;20244;-83
2021/06/19 01:25:49;;;;;;;22.88;20.58;;;22.40;60.90;;;;;;4923924;29;20241;-83
2021/06/19 01:28:16;;;;;;;23.63;21.23;;;22.30;60.90;;;;;;4940854;29;20165;-83
2021/06/19 01:30:43;;;;;;;23.98;21.58;;;22.30;60.80;;;;;;4908870;29;20633;-84
2021/06/19 01:33:09;;;;;;;24.25;21.75;;;22.30;60.90;;;;;;4941216;29;20149;-82
2021/06/19 01:35:36;;;;;;;23.20;20.90;;;22.30;60.90;;;;;;4955930;28;20232;-83
2021/06/19 01:38:02;;;;;;;23.88;21.45;;;22.20;60.90;;;;;;4925191;29;20174;-82
2021/06/19 01:40:30;;;;;;;23.45;21.05;;;22.30;60.90;;;;;;4940372;29;20169;-84
2021/06/19 01:42:56;;;;;;;23.27;20.77;;;22.30;60.90;;;;;;4924519;29;20173;-83
2021/06/19 01:45:23;;;;;;;22.85;20.55;;;22.30;60.90;;;;;;4924661;29;20208;-83
2021/06/19 01:47:50;;;;;;;24.55;22.02;;;22.30;60.90;;;;;;4940343;29;20555;-83
2021/06/19 01:50:17;;;;;;;24.15;21.65;;;22.30;60.90;;;;;;4940238;29;20212;-83
2021/06/19 01:52:47;;;;;;;24.10;21.60;;;22.30;61.00;;;;;;4940923;29;20164;-83
2021/06/19 01:55:17;;;;;;;24.05;21.58;;;22.30;60.90;;;;;;4893145;29;20600;-82
2021/06/19 01:57:46;;;;;;;23.90;21.50;;;22.30;60.90;;;;;;4923497;29;20545;-84
2021/06/19 02:00:17;;;;;;;23.73;21.33;;;22.30;60.90;;;;;;4923796;29;20190;-84
2021/06/19 02:02:46;;;;;;;22.65;20.38;;;22.30;60.90;;;;;;4909100;29;20236;-83
2021/06/19 02:05:16;;;;;;;23.60;21.20;;;22.20;60.80;;;;;;4892499;29;20220;-83
2021/06/19 02:07:50;;;;;;;23.50;21.02;;;22.20;60.80;;;;;;4892772;29;20216;-83
2021/06/19 02:10:18;;;;;;;23.98;21.48;;;22.30;60.90;;;;;;4893042;29;20749;-82
2021/06/19 02:12:45;;;;;;;23.40;20.90;;;22.30;61.00;;;;;;4940082;29;20208;-84
2021/06/19 02:15:11;;;;;;;23.80;21.40;;;22.20;60.90;;;;;;4924890;29;20171;-83
2021/06/19 02:17:37;;;;;;;23.73;21.30;;;22.20;60.90;;;;;;4940160;29;20153;-83
2021/06/19 02:20:05;;;;;;;23.52;21.13;;;22.30;61.00;;;;;;4940625;29;20158;-82
2021/06/19 02:22:31;;;;;;;23.60;21.20;;;22.20;61.00;;;;;;4940371;29;20173;-83
2021/06/19 02:24:56;;;;;;;23.38;21.02;;;22.20;60.90;;;;;;4955736;29;20189;-82
2021/06/19 02:27:23;;;;;;;23.77;21.20;;;22.20;61.00;;;;;;4955925;29;20232;-83
2021/06/19 02:29:50;;;;;;;22.77;20.40;;;22.20;61.00;;;;;;4940296;29;20154;-83
2021/06/19 02:32:16;;;;;;;23.33;20.88;;;22.20;61.00;;;;;;4956128;29;20161;-83
2021/06/19 02:34:44;;;;;;;23.88;21.48;;;22.20;61.00;;;;;;4925205;29;20181;-82
2021/06/19 02:37:11;;;;;;;23.08;20.70;;;22.20;61.10;;;;;;4892103;29;20284;-83
2021/06/19 02:39:39;;;;;;;23.17;20.77;;;22.20;61.00;;;;;;4907854;29;20213;-83
2021/06/19 02:42:06;;;;;;;22.63;20.33;;;22.20;61.00;;;;;;4907679;29;20653;-84
2021/06/19 02:44:36;;;;;;;24.58;22.08;;;22.20;61.00;;;;;;4892240;29;20217;-83
2021/06/19 02:47:03;;;;;;;23.88;21.48;;;22.20;61.00;;;;;;4892259;28;20268;-83
2021/06/19 02:49:30;;;;;;;23.60;21.20;;;22.20;61.00;;;;;;4925907;29;20188;-83
2021/06/19 02:51:58;;;;;;;23.88;21.48;;;22.20;61.10;;;;;;4926960;29;20189;-84
2021/06/19 02:54:25;;;;;;;22.65;20.35;;;22.30;61.10;;;;;;4911689;29;20260;-84
2021/06/19 02:56:50;;;;;;;23.95;21.45;;;22.20;61.00;;;;;;4911479;29;20219;-84
2021/06/19 02:59:19;;;;;;;23.02;20.73;;;22.20;61.00;;;;;;4959962;29;20165;-83
2021/06/19 03:01:45;;;;;;;23.42;20.98;;;22.20;61.00;;;;;;4959952;29;20173;-83
2021/06/19 03:04:13;;;;;;;23.52;21.05;;;22.10;60.90;;;;;;4959802;29;20190;-83
2021/06/19 03:06:39;;;;;;;23.33;20.92;;;22.10;60.90;;;;;;4943841;29;20694;-83
2021/06/19 03:09:04;;;;;;;23.70;21.23;;;22.20;60.90;;;;;;4959534;29;20170;-83
2021/06/19 03:11:30;;;;;;;24.08;21.58;;;22.20;60.90;;;;;;4943747;29;20160;-82
2021/06/19 03:13:57;;;;;;;22.77;20.48;;;22.20;61.00;;;;;;4943932;29;20172;-83
2021/06/19 03:16:23;;;;;;;23.33;20.95;;;22.10;61.00;;;;;;4959732;29;20173;-82
2021/06/19 03:18:50;;;;;;;23.42;21.02;;;22.10;61.00;;;;;;4959288;29;20173;-84
2021/06/19 03:21:17;;;;;;;23.52;21.13;;;22.20;61.10;;;;;;4959370;29;20286;-83
2021/06/19 03:23:42;;;;;;;22.02;19.83;;;22.20;61.00;;;;;;4943162;29;20711;-83
2021/06/19 03:26:09;;;;;;;23.80;21.30;;;22.20;61.00;;;;;;4943389;29;20260;-82
2021/06/19 03:28:34;;;;;;;23.08;20.75;;;22.20;61.10;;;;;;4959047;29;20248;-82
2021/06/19 03:31:00;;;;;;;24.35;21.85;;;22.10;61.10;;;;;;4927296;29;20211;-82
2021/06/19 03:33:26;;;;;;;23.25;20.88;;;22.10;61.10;;;;;;4943454;29;20201;-83
2021/06/19 03:35:53;;;;;;;23.95;21.45;;;22.10;61.10;;;;;;4958892;29;20221;-83
2021/06/19 03:38:19;;;;;;;22.73;20.35;;;22.10;61.10;;;;;;4927281;29;20177;-83
2021/06/19 03:40:45;;;;;;;22.90;20.52;;;22.10;61.00;;;;;;4958872;29;20165;-83
2021/06/19 03:43:11;;;;;;;22.70;20.40;;;22.10;61.00;;;;;;4958498;29;20220;-82
2021/06/19 03:45:37;;;;;;;25.85;22.17;;;22.10;61.00;;;;;;4959232;29;20161;-82
2021/06/19 03:48:05;;;;;;;22.98;20.58;;;22.10;61.10;;;;;;4927078;29;20561;-83
2021/06/19 03:50:31;;;;;;;24.50;21.98;;;22.10;61.00;;;;;;4958636;29;20520;-83
2021/06/19 03:53:01;;;;;;;24.40;21.95;;;22.10;61.10;;;;;;4926758;29;20177;-83
2021/06/19 03:55:29;;;;;;;23.73;21.23;;;22.20;61.20;;;;;;4894544;29;20204;-83
2021/06/19 03:57:58;;;;;;;23.50;21.10;;;22.10;61.00;;;;;;4894280;29;20217;-83
2021/06/19 04:00:26;;;;;;;23.85;21.35;;;22.10;61.10;;;;;;4894370;29;20213;-81
2021/06/19 04:02:54;;;;;;;22.35;20.10;;;22.10;61.10;;;;;;4894519;29;20344;-82
2021/06/19 04:05:22;;;;;;;24.08;21.67;;;22.10;61.10;;;;;;4925866;29;20590;-83
2021/06/19 04:07:49;;;;;;;23.02;20.65;;;22.00;61.00;;;;;;4909995;29;20264;-82
2021/06/19 04:10:18;;;;;;;23.13;20.73;;;22.10;61.00;;;;;;4925964;29;20205;-82
2021/06/19 04:12:46;;;;;;;23.05;20.75;;;22.10;61.00;;;;;;4910248;29;20189;-82
2021/06/19 04:15:16;;;;;;;22.98;20.58;;;22.10;61.00;;;;;;4910332;29;20525;-83
2021/06/19 04:17:44;;;;;;;22.95;20.55;;;22.20;61.10;;;;;;4910006;29;20302;-83
2021/06/19 04:20:13;;;;;;;23.73;21.23;;;22.10;61.00;;;;;;4894428;29;20185;-82
2021/06/19 04:22:41;;;;;;;23.33;20.92;;;22.10;60.90;;;;;;4894536;29;20189;-83
2021/06/19 04:25:10;;;;;;;24.00;21.60;;;22.10;60.90;;;;;;4925679;29;20220;-83
2021/06/19 04:27:40;;;;;;;23.58;21.15;;;22.10;61.00;;;;;;4925730;29;20197;-83
2021/06/19 04:30:08;;;;;;;23.58;21.08;;;22.10;61.00;;;;;;4909844;29;20186;-82
2021/06/19 04:32:34;;;;;;;22.77;20.40;;;22.00;60.90;;;;;;4926357;29;20173;-82
2021/06/19 04:35:00;;;;;;;23.30;20.95;;;22.10;61.10;;;;;;4925746;29;20658;-82
2021/06/19 04:37:27;;;;;;;24.02;21.63;;;22.10;61.20;;;;;;4957781;29;20179;-82
2021/06/19 04:40:07;;;;;;;23.60;21.20;;;22.10;61.20;;;;;;4957721;29;20169;-82
2021/06/19 04:42:37;;;;;;;23.85;21.35;;;22.10;61.10;;;;;;4957806;29;20208;-82
2021/06/19 04:45:06;;;;;;;23.00;20.70;;;22.10;61.10;;;;;;4957340;29;20205;-82
2021/06/19 04:47:33;;;;;;;23.67;21.25;;;22.10;61.00;;;;;;4957821;29;20150;-83
2021/06/19 04:50:00;;;;;;;23.77;21.38;;;22.10;61.00;;;;;;4958028;29;20173;-82
2021/06/19 04:52:30;;;;;;;22.70;20.40;;;22.10;61.00;;;;;;4926096;29;20173;-83
2021/06/19 04:54:57;;;;;;;23.58;21.13;;;22.10;61.10;;;;;;4894642;29;20193;-83
2021/06/19 04:57:25;;;;;;;23.58;21.08;;;22.00;61.00;;;;;;4957518;29;20297;-82
2021/06/19 04:59:53;;;;;;;24.05;21.55;;;22.10;61.00;;;;;;4894025;29;20309;-83
2021/06/19 05:02:21;;;;;;;23.23;20.83;;;22.00;61.00;;;;;;4940987;29;20225;-82
2021/06/19 05:04:48;;;;;;;23.65;21.15;;;22.10;61.00;;;;;;4893536;29;20299;-84
2021/06/19 05:07:16;;;;;;;21.52;19.33;;;22.10;61.00;;;;;;4940351;29;20181;-82
2021/06/19 05:09:42;;;;;;;23.58;21.08;;;22.10;61.00;;;;;;4925150;29;20192;-83
2021/06/19 05:12:09;;;;;;;22.80;20.50;;;22.10;60.90;;;;;;4956691;28;20154;-82
2021/06/19 05:14:35;;;;;;;23.30;20.98;;;22.10;60.90;;;;;;4941710;29;20173;-82
2021/06/19 05:17:02;;;;;;;22.55;20.23;;;22.00;60.90;;;;;;4925136;29;20169;-82
2021/06/19 05:19:29;;;;;;;22.80;20.50;;;22.10;60.90;;;;;;4941200;29;20621;-82
2021/06/19 05:21:56;;;;;;;22.35;20.00;;;22.10;60.90;;;;;;4925107;29;20287;-83
2021/06/19 05:24:25;;;;;;;23.00;20.65;;;22.10;60.90;;;;;;4957644;29;20276;-82
2021/06/19 05:26:54;;;;;;;22.25;20.02;;;22.10;60.90;;;;;;4908912;29;20561;-82
2021/06/19 05:29:23;;;;;;;23.00;20.60;;;22.10;60.80;;;;;;4893281;29;20219;-82
2021/06/19 05:31:52;;;;;;;22.60;20.25;;;22.10;60.60;;;;;;4909361;29;20190;-83
2021/06/19 05:34:21;;;;;;;23.27;20.88;;;22.10;60.60;;;;;;4940886;29;20193;-83
2021/06/19 05:36:50;;;;;;;22.75;20.35;;;22.10;60.60;;;;;;4909474;29;20185;-82
2021/06/19 05:39:19;;;;;;;22.58;20.27;;;22.10;60.60;;;;;;4924721;29;20193;-82
2021/06/19 05:41:47;;;;;;;24.13;21.58;;;22.20;60.50;;;;;;4893004;29;20181;-82
2021/06/19 05:44:16;;;;;;;22.90;20.55;;;22.20;60.40;;;;;;4908914;29;20826;-82
2021/06/19 05:46:44;;;;;;;22.65;20.38;;;22.20;60.40;;;;;;4908911;29;20728;-82
2021/06/19 05:49:10;;;;;;;22.50;20.20;;;22.20;60.40;;;;;;4924818;29;20303;-82
2021/06/19 05:51:38;;;;;;;23.13;20.67;;;22.20;60.10;;;;;;4941358;29;20187;-82
2021/06/19 05:54:04;;;;;;;23.60;21.10;;;22.30;60.00;;;;;;4941360;29;20172;-83
2021/06/19 05:56:34;;;;;;;22.63;20.33;;;22.30;60.20;;;;;;4941450;29;20681;-82
2021/06/19 05:59:04;;;;;;;21.98;19.77;;;22.20;60.00;;;;;;4893371;29;20188;-83
2021/06/19 06:01:34;;;;;;;23.50;21.05;;;22.30;60.00;;;;;;4908986;29;20181;-83
2021/06/19 06:04:01;;;;;;;22.58;20.27;;;22.20;59.90;;;;;;4909282;29;20220;-82
2021/06/19 06:06:29;;;;;;;22.15;19.95;;;22.20;59.90;;;;;;4893775;29;20708;-83
2021/06/19 06:08:57;;;;;;;21.92;19.63;;;22.30;60.00;;;;;;4909121;29;20653;-84
2021/06/19 06:11:24;;;;;;;21.90;19.70;;;22.30;60.00;;;;;;4909690;29;20196;-83
2021/06/19 06:13:51;;;;;;;22.23;19.83;;;22.30;59.90;;;;;;4925123;29;20235;-82
2021/06/19 06:16:19;;;;;;;22.38;20.05;;;22.30;59.70;;;;;;4893635;29;20185;-84
2021/06/19 06:18:46;;;;;;;23.20;20.83;;;22.30;59.70;;;;;;4909307;29;20189;-82
2021/06/19 06:21:12;;;;;;;22.33;20.02;;;22.30;59.70;;;;;;4924328;29;20225;-82
2021/06/19 06:23:37;;;;;;;22.02;19.73;;;22.30;59.80;;;;;;4941511;29;20256;-83
2021/06/19 06:26:03;;;;;;;22.10;19.85;;;22.30;59.70;;;;;;4941347;29;20245;-83
2021/06/19 06:28:30;;;;;;;21.95;19.65;;;22.30;59.80;;;;;;4925466;29;20209;-82
2021/06/19 06:30:57;;;;;;;22.65;20.25;;;22.30;59.70;;;;;;4957120;29;20554;-82
2021/06/19 06:33:25;;;;;;;21.63;19.48;;;22.30;59.80;;;;;;4941433;29;20495;-82
2021/06/19 06:35:55;;;;;;;21.35;19.17;;;22.30;59.70;;;;;;4926475;29;20179;-81
2021/06/19 06:38:24;;;;;;;21.13;19.00;;;22.30;59.70;;;;;;4909783;29;20236;-84
2021/06/19 06:40:53;;;;;;;21.45;19.25;;;22.30;59.70;;;;;;4894398;29;20301;-82
2021/06/19 06:43:20;;;;;;;22.15;19.95;;;22.30;59.70;;;;;;4941579;29;20220;-84
2021/06/19 06:45:49;;;;;;;22.13;19.85;;;22.30;59.70;;;;;;4957686;29;20169;-81
2021/06/19 06:48:19;;;;;;;22.15;19.85;;;22.40;59.60;;;;;;4894718;29;20181;-82
2021/06/19 06:50:50;;;;;;;22.42;20.13;;;22.40;59.50;;;;;;4894848;29;20181;-82
2021/06/19 06:53:21;;;;;;;22.25;19.95;;;22.30;59.50;;;;;;4910780;29;20212;-81
2021/06/19 06:55:52;;;;;;;21.90;19.60;;;22.30;59.50;;;;;;4926051;29;20547;-81
2021/06/19 06:58:24;;;;;;;22.52;20.17;;;22.40;59.50;;;;;;4926224;29;20192;-82
2021/06/19 07:00:50;;;;;;;22.70;20.35;;;22.40;59.60;;;;;;4910562;29;20186;-82
2021/06/19 07:03:18;;;;;;;22.35;20.05;;;22.40;59.60;;;;;;4927930;29;20166;-82
2021/06/19 07:05:46;;;;;;;21.80;19.50;;;22.40;59.40;;;;;;4942207;29;20192;-81
2021/06/19 07:08:14;;;;;;;22.48;20.10;;;22.40;59.50;;;;;;4910069;29;20714;-83
2021/06/19 07:10:42;;;;;;;22.40;20.00;;;22.40;59.40;;;;;;4957224;29;20188;-82
2021/06/19 07:13:12;;;;;;;22.30;20.00;;;22.50;59.10;;;;;;4910300;29;20298;-81
2021/06/19 07:15:38;;;;;;;21.65;19.45;;;22.50;59.20;;;;;;4894159;29;20212;-84
2021/06/19 07:18:06;;;;;;;21.80;19.60;;;22.50;59.90;;;;;;4941487;29;20170;-82
2021/06/19 07:20:33;;;;;;;22.08;19.77;;;22.50;59.20;;;;;;4909642;29;20352;-83
2021/06/19 07:23:00;;;;;;;22.20;19.95;;;22.40;59.30;;;;;;4956947;29;20284;-84
2021/06/19 07:25:26;;;;;;;21.52;19.42;;;22.50;59.20;;;;;;4957288;29;20337;-82
2021/06/19 07:27:58;;;;;;;22.77;20.48;;;22.50;59.10;;;;;;4926453;29;20213;-81
2021/06/19 07:30:27;;;;;;;22.40;20.13;;;22.60;59.20;;;;;;4894784;29;20186;-83
2021/06/19 07:32:56;;;;;;;21.48;19.27;;;22.60;59.10;;;;;;4925242;29;20186;-83
2021/06/19 07:35:25;;;;;;;22.02;19.83;;;22.60;59.30;;;;;;4912117;29;20189;-82
2021/06/19 07:37:54;;;;;;;22.98;20.63;;;22.60;59.00;;;;;;4897818;29;20671;-83
2021/06/19 07:40:22;;;;;;;21.77;19.55;;;22.60;58.90;;;;;;4912283;29;20213;-83
2021/06/19 07:42:51;;;;;;;21.73;19.52;;;22.60;58.70;;;;;;4913000;29;20215;-82
2021/06/19 07:45:19;;;;;;;20.73;18.67;;;22.60;58.70;;;;;;4944254;29;20221;-82
2021/06/19 07:47:48;;;;;;;22.83;20.52;;;22.60;58.70;;;;;;4897150;29;20196;-84
2021/06/19 07:50:13;;;;;;;21.35;19.17;;;22.70;58.80;;;;;;4928009;29;20193;-83
2021/06/19 07:52:42;;;;;;;21.98;19.67;;;22.70;58.70;;;;;;4961576;29;20202;-82
2021/06/19 07:55:12;;;;;;;21.73;19.52;;;22.70;58.60;;;;;;4944747;29;20185;-83
2021/06/19 07:57:44;;;;;;;21.13;18.98;;;22.70;58.50;;;;;;4912929;29;20188;-81
2021/06/19 08:00:10;;;;;;;22.83;20.52;;;22.80;58.50;;;;;;4913794;29;20185;-82
2021/06/19 08:02:37;;;;;;;21.52;19.33;;;22.70;58.50;;;;;;4964446;29;20154;-81
2021/06/19 08:05:07;;;;;;;21.08;18.98;;;22.60;58.70;;;;;;4935354;29;20194;-80
2021/06/19 08:07:35;;;;;;;23.27;20.88;;;22.70;58.50;;;;;;4935351;29;20232;-81
2021/06/19 08:10:03;;;;;;;22.05;19.75;;;22.80;58.50;;;;;;4920045;29;20177;-81
2021/06/19 08:12:31;;;;;;;21.15;19.00;;;22.80;58.40;;;;;;4918770;29;20184;-81
2021/06/19 08:14:59;;;;;;;21.90;19.70;;;22.80;58.20;;;;;;4919298;29;20193;-80
2021/06/19 08:17:26;;;;;;;21.27;19.10;;;22.80;58.20;;;;;;4919789;29;20192;-80
2021/06/19 08:19:54;;;;;;;21.23;19.10;;;22.80;58.30;;;;;;4934867;29;20190;-80
2021/06/19 08:22:21;;;;;;;21.40;19.23;;;22.80;58.20;;;;;;4952111;29;20182;-80
2021/06/19 08:24:51;;;;;;;21.52;19.42;;;23.00;58.10;;;;;;4904642;29;20369;-80
2021/06/19 08:27:22;;;;;;;21.98;19.70;;;22.80;58.20;;;;;;4918931;29;20228;-81
2021/06/19 08:29:50;;;;;;;21.20;18.92;;;22.80;58.30;;;;;;4906735;29;20258;-80
2021/06/19 08:32:19;;;;;;;21.17;19.05;;;22.80;58.20;;;;;;4904407;29;20220;-81
2021/06/19 08:34:45;;;;;;;20.63;18.55;;;22.80;58.30;;;;;;4952436;29;20165;-81
2021/06/19 08:37:13;;;;;;;21.20;19.10;;;22.80;58.20;;;;;;4950866;29;20254;-81
2021/06/19 08:39:44;;;;;;;21.58;19.38;;;22.90;57.90;;;;;;4936612;29;20781;-81
2021/06/19 08:42:10;;;;;;;22.05;19.88;;;23.00;57.90;;;;;;4902898;29;20189;-81
2021/06/19 08:44:47;;;;;;;20.98;18.88;;;22.80;58.20;;;;;;4965483;29;20613;-80
2021/06/19 08:47:13;;;;;;;22.10;19.80;;;22.80;58.20;;;;;;4902759;29;20211;-81
2021/06/19 08:49:43;;;;;;;20.98;18.88;;;22.90;58.40;;;;;;4951433;29;20161;-80
2021/06/19 08:52:13;;;;;;;21.75;19.55;;;22.90;58.20;;;;;;4951616;29;20208;-81
2021/06/19 08:54:39;;;;;;;20.75;18.65;;;22.80;58.20;;;;;;4917972;29;20213;-80
2021/06/19 08:57:10;;;;;;;20.75;18.73;;;22.80;58.20;;;;;;4965644;29;20166;-81
2021/06/19 08:59:37;;;;;;;21.98;19.67;;;22.80;58.20;;;;;;4952267;29;20166;-80
2021/06/19 09:02:13;;;;;;;21.23;19.05;;;22.70;58.40;;;;;;4968784;29;20169;-81
2021/06/19 09:05:13;;;;;;;21.55;19.40;;;22.80;58.50;;;;;;4904034;29;20217;-80
2021/06/19 09:07:45;;;;;;;22.13;19.92;;;22.80;58.40;;;;;;4967773;29;20245;-82
2021/06/19 09:10:32;;;;;;;21.70;19.50;;;22.80;58.30;;;;;;4935784;29;20169;-81
2021/06/19 09:13:09;;;;;;;21.70;19.50;;;22.80;58.50;;;;;;4951582;29;20319;-80
2021/06/19 09:15:45;;;;;;;21.38;19.17;;;22.70;58.50;;;;;;4936247;29;20162;-81
2021/06/19 09:18:15;;;;;;;21.58;19.38;;;22.80;58.30;;;;;;4904826;29;20191;-81
2021/06/19 09:20:53;;;;;;;21.80;19.60;;;22.80;58.20;;;;;;4951714;29;20174;-80
2021/06/19 09:23:34;;;;;;;21.02;18.85;;;22.80;58.10;;;;;;4967696;29;20157;-81
2021/06/19 09:26:24;;;;;;;21.50;19.27;;;22.90;58.10;;;;;;4920296;29;20217;-81
2021/06/19 09:29:07;;;;;;;20.73;18.73;;;22.80;58.20;;;;;;4952618;29;20174;-81
2021/06/19 09:31:53;;;;;;;20.85;18.75;;;22.70;58.40;;;;;;4952190;29;20157;-80
2021/06/19 09:34:22;;;;;;;21.00;18.85;;;22.80;58.50;;;;;;4939007;29;20225;-81
2021/06/19 09:36:52;;;;;;;20.88;18.80;;;22.90;58.30;;;;;;4951466;29;20572;-81
2021/06/19 09:39:21;;;;;;;21.48;19.20;;;22.80;58.20;;;;;;4967781;29;20161;-81
2021/06/19 09:41:51;;;;;;;20.75;18.65;;;22.80;58.20;;;;;;4967616;29;20166;-81
2021/06/19 09:44:31;;;;;;;20.52;18.45;;;22.80;58.40;;;;;;4968059;29;20243;-80
2021/06/19 09:46:57;;;;;;;21.33;19.08;;;22.80;58.40;;;;;;4937309;29;20161;-81
2021/06/19 09:49:30;;;;;;;21.08;18.98;;;22.80;58.50;;;;;;4951105;29;20156;-81
2021/06/19 09:51:57;;;;;;;20.30;18.23;;;22.70;58.60;;;;;;4951447;29;20212;-80
2021/06/19 09:54:23;;;;;;;21.70;19.50;;;22.70;58.60;;;;;;4967216;29;20165;-81
2021/06/19 09:56:51;;;;;;;20.50;18.40;;;22.70;58.70;;;;;;4966767;28;20208;-80
2021/06/19 09:59:25;;;;;;;21.05;18.85;;;22.70;58.70;;;;;;4951010;29;20162;-81
2021/06/19 10:01:51;;;;;;;21.27;19.08;;;22.70;58.50;;;;;;4919838;29;20181;-81
2021/06/19 10:04:19;;;;;;;20.33;18.25;;;22.80;58.60;;;;;;4950938;29;20193;-81
2021/06/19 10:06:50;;;;;;;21.13;19.02;;;22.70;58.60;;;;;;4951171;29;20221;-81
2021/06/19 10:09:20;;;;;;;20.27;18.17;;;22.70;58.60;;;;;;4919550;29;20185;-81
2021/06/19 10:11:53;;;;;;;21.52;19.33;;;22.70;58.70;;;;;;4949899;29;20184;-81
2021/06/19 10:14:24;;;;;;;21.00;18.92;;;22.60;58.80;;;;;;4919077;29;20220;-81
2021/06/19 10:16:52;;;;;;;21.33;19.05;;;22.70;58.80;;;;;;4903201;29;20188;-81
2021/06/19 10:19:21;;;;;;;20.98;18.88;;;22.70;58.90;;;;;;4935432;29;20161;-81
2021/06/19 10:21:51;;;;;;;20.98;18.88;;;22.60;58.80;;;;;;4935875;29;20176;-81
2021/06/19 10:24:22;;;;;;;21.27;19.08;;;22.60;58.90;;;;;;4950848;29;20189;-81
2021/06/19 10:26:52;;;;;;;20.17;18.17;;;22.60;58.90;;;;;;4918202;29;20228;-81
2021/06/19 10:29:28;;;;;;;20.85;18.75;;;22.60;59.00;;;;;;4903353;29;20184;-81
2021/06/19 10:32:02;;;;;;;20.75;18.65;;;22.60;59.00;;;;;;4919054;29;20224;-81
2021/06/19 10:34:32;;;;;;;20.55;18.50;;;22.60;58.90;;;;;;4967223;29;20177;-80
2021/06/19 10:37:03;;;;;;;20.67;18.65;;;22.70;58.80;;;;;;4950544;29;20233;-81
2021/06/19 10:39:32;;;;;;;19.67;17.67;;;22.70;58.90;;;;;;4935560;29;20260;-81
2021/06/19 10:41:58;;;;;;;20.92;18.83;;;22.70;58.70;;;;;;4951176;29;20154;-80
2021/06/19 10:44:51;;;;;;;21.95;19.73;;;22.70;58.60;;;;;;4950826;29;20199;-81
2021/06/19 10:47:18;;;;;;;20.02;17.92;;;22.80;58.60;;;;;;4951078;29;20153;-81
2021/06/19 10:49:45;;;;;;;19.85;17.85;;;22.80;58.50;;;;;;4950259;29;20157;-80
2021/06/19 10:52:26;;;;;;;20.92;18.80;;;22.80;58.50;;;;;;4967240;29;20221;-80
2021/06/19 10:55:14;;;;;;;20.38;18.38;;;22.80;58.60;;;;;;4965875;29;20154;-80
2021/06/19 10:57:47;;;;;;;21.13;19.13;;;22.70;58.70;;;;;;4966998;29;20165;-81
2021/06/19 11:00:28;;;;;;;20.35;18.30;;;22.60;58.70;;;;;;4903391;29;20249;-80
2021/06/19 11:03:01;;;;;;;19.90;18.00;;;22.70;58.90;;;;;;4950676;29;20302;-81
2021/06/19 11:05:49;;;;;;;21.45;19.25;;;22.70;58.90;;;;;;4920148;29;20213;-82
2021/06/19 11:08:16;;;;;;;19.88;17.95;;;22.60;58.90;;;;;;4953822;28;20285;-82
2021/06/19 11:10:51;;;;;;;20.45;18.40;;;22.70;58.90;;;;;;4938297;29;20180;-80
2021/06/19 11:13:39;;;;;;;20.63;18.63;;;22.70;58.90;;;;;;4938775;29;20175;-81
2021/06/19 11:16:27;;;;;;;20.75;18.73;;;22.70;58.80;;;;;;4958357;29;20189;-81
2021/06/19 11:18:54;;;;;;;19.88;17.80;;;22.60;58.90;;;;;;4957335;29;20539;-81
2021/06/19 11:21:28;;;;;;;21.08;18.90;;;22.60;58.90;;;;;;4955070;29;20164;-81
2021/06/19 11:24:09;;;;;;;20.42;18.33;;;22.60;58.90;;;;;;4954542;29;20189;-80
2021/06/19 11:26:58;;;;;;;20.00;17.95;;;22.70;58.90;;;;;;4954686;29;20213;-81
2021/06/19 11:29:36;;;;;;;20.10;18.10;;;22.70;58.90;;;;;;4970319;29;20157;-81
2021/06/19 11:32:23;;;;;;;20.27;18.25;;;22.70;58.80;;;;;;4954709;29;20157;-81
2021/06/19 11:34:51;;;;;;;20.02;18.13;;;22.60;58.90;;;;;;4954819;29;20185;-81
2021/06/19 11:37:19;;;;;;;20.15;18.15;;;22.70;58.90;;;;;;4953916;29;20154;-81
2021/06/19 11:39:45;;;;;;;21.00;18.90;;;22.70;59.00;;;;;;4954150;29;20536;-82
2021/06/19 11:42:11;;;;;;;20.52;18.45;;;22.80;58.90;;;;;;4938613;29;20197;-81
2021/06/19 11:44:42;;;;;;;20.10;17.95;;;22.80;58.80;;;;;;4954420;29;20196;-81
2021/06/19 11:47:08;;;;;;;20.20;18.20;;;22.70;58.90;;;;;;4954346;29;20172;-81
2021/06/19 11:49:35;;;;;;;20.25;18.13;;;22.80;58.90;;;;;;4970012;29;20490;-80
2021/06/19 11:52:07;;;;;;;21.40;19.25;;;22.90;58.80;;;;;;4932942;29;20318;-80
2021/06/19 11:54:41;;;;;;;19.77;17.77;;;22.80;59.00;;;;;;4911081;29;20189;-79
2021/06/19 11:57:25;;;;;;;19.80;17.80;;;22.80;59.20;;;;;;4913474;29;20185;-79
2021/06/19 12:00:10;;;;;;;20.90;18.80;;;22.90;58.90;;;;;;4930263;29;20188;-77
2021/06/19 12:02:40;;;;;;;19.88;17.88;;;22.70;59.00;;;;;;4962971;29;20153;-78
2021/06/19 12:05:14;;;;;;;20.27;18.27;;;22.80;59.30;;;;;;4929813;29;20680;-78
2021/06/19 12:07:44;;;;;;;21.00;18.83;;;22.90;59.40;;;;;;4915073;29;20185;-78
2021/06/19 12:10:27;;;;;;;20.50;18.45;;;22.90;59.00;;;;;;4909599;29;20193;-84
2021/06/19 12:13:02;;;;;;;20.50;18.50;;;23.00;59.30;;;;;;4958960;29;20585;-85
2021/06/19 12:15:35;;;;;;;20.33;18.33;;;22.90;59.10;;;;;;4927955;29;20165;-87
2021/06/19 12:18:04;;;;;;;20.35;18.35;;;22.80;59.30;;;;;;4898441;29;20186;-88
2021/06/19 12:21:08;;;;;;;20.73;18.55;;;22.80;60.00;;;;;;4959803;28;20150;-88
2021/06/19 12:23:42;;;;;;;20.42;18.33;;;23.00;59.80;;;;;;4942454;29;20181;-88
2021/06/19 12:26:13;;;;;;;20.88;18.63;;;23.00;59.60;;;;;;4890876;29;20621;-88
2021/06/19 12:29:00;;;;;;;21.60;19.40;;;23.00;59.50;;;;;;4906922;29;20182;-89
2021/06/19 12:31:28;;;;;;;21.33;19.13;;;23.10;59.60;;;;;;4907283;29;20237;-81
2021/06/19 12:33:59;;;;;;;21.05;18.88;;;23.10;59.20;;;;;;4888693;29;20277;-79
2021/06/19 12:36:26;;;;;;;19.52;17.50;;;23.10;59.60;;;;;;4904513;29;20186;-80
2021/06/19 12:38:54;;;;;;;21.45;19.10;;;23.10;58.50;;;;;;4872865;29;20228;-80
2021/06/19 12:41:20;;;;;;;21.48;19.27;;;23.10;59.20;;;;;;4887561;29;20204;-80